createdAt,value
2022-11-25T00:01:30.402Z,7.17
2022-11-25T00:03:02.287Z,7.18
2022-11-25T00:04:37.213Z,7.22
2022-11-25T00:06:10.108Z,7.22
2022-11-25T00:07:42.321Z,7.18
2022-11-25T00:09:14.109Z,7.18
2022-11-25T00:10:45.972Z,7.16
2022-11-25T00:12:17.822Z,7.18
2022-11-25T00:13:49.512Z,7.20
2022-11-25T00:15:21.038Z,7.21
2022-11-25T00:16:52.545Z,7.22
2022-11-25T00:18:24.444Z,7.19
2022-11-25T00:19:56.355Z,7.22
2022-11-25T00:21:29.575Z,7.24
2022-11-25T00:23:01.431Z,7.23
2022-11-25T00:24:33.467Z,7.21
2022-11-25T00:26:11.771Z,7.19
2022-11-25T00:27:43.633Z,7.19
2022-11-25T00:29:15.497Z,7.19
2022-11-25T00:30:47.134Z,7.20
2022-11-25T00:32:18.802Z,7.20
2022-11-25T00:33:50.569Z,7.21
2022-11-25T00:35:22.030Z,7.21
2022-11-25T00:36:53.687Z,7.21
2022-11-25T00:38:25.331Z,7.23
2022-11-25T00:39:56.874Z,7.25
2022-11-25T00:41:46.905Z,7.25
2022-11-25T00:43:37.438Z,7.29
2022-11-25T00:45:09.196Z,7.29
2022-11-25T00:46:40.945Z,7.27
2022-11-25T00:48:12.727Z,7.31
2022-11-25T00:49:47.994Z,7.31
2022-11-25T00:51:19.583Z,7.28
2022-11-25T00:52:51.326Z,7.23
2022-11-25T00:54:22.936Z,7.22
2022-11-25T00:56:13.159Z,7.19
2022-11-25T00:57:44.953Z,7.17
2022-11-25T00:59:16.882Z,7.12
2022-11-25T01:00:48.549Z,7.13
2022-11-25T01:02:20.219Z,7.11
2022-11-25T01:03:52.307Z,7.10
2022-11-25T01:05:23.797Z,7.09
2022-11-25T01:06:56.916Z,7.11
2022-11-25T01:08:31.757Z,7.12
2022-11-25T01:10:03.455Z,7.12
2022-11-25T01:11:35.173Z,7.12
2022-11-25T01:13:06.773Z,7.10
2022-11-25T01:14:38.671Z,7.08
2022-11-25T01:16:11.812Z,7.07
2022-11-25T01:17:43.306Z,7.12
2022-11-25T01:19:15.451Z,7.11
2022-11-25T01:20:47.552Z,7.11
2022-11-25T01:22:19.081Z,7.08
2022-11-25T01:23:50.954Z,7.06
2022-11-25T01:25:22.485Z,7.05
2022-11-25T01:26:54.333Z,7.02
2022-11-25T01:28:25.839Z,6.98
2022-11-25T01:29:57.457Z,6.96
2022-11-25T01:31:33.596Z,6.96
2022-11-25T01:33:05.753Z,6.91
2022-11-25T01:34:37.754Z,6.91
2022-11-25T01:36:13.196Z,6.95
2022-11-25T01:37:44.752Z,6.99
2022-11-25T01:39:17.604Z,6.97
2022-11-25T01:40:49.249Z,6.99
2022-11-25T01:42:21.132Z,7.02
2022-11-25T01:44:09.328Z,7.06
2022-11-25T01:45:40.892Z,7.06
2022-11-25T01:47:16.251Z,7.06
2022-11-25T01:48:51.781Z,7.09
2022-11-25T01:50:23.414Z,7.12
2022-11-25T01:51:58.063Z,7.13
2022-11-25T01:53:29.602Z,7.13
2022-11-25T01:55:05.993Z,7.10
2022-11-25T01:56:39.657Z,7.09
2022-11-25T01:58:18.412Z,7.08
2022-11-25T01:59:50.532Z,7.06
2022-11-25T02:01:22.476Z,7.05
2022-11-25T02:02:54.934Z,7.03
2022-11-25T02:04:28.116Z,6.97
2022-11-25T02:06:18.117Z,6.98
2022-11-25T02:07:49.980Z,6.96
2022-11-25T02:09:21.631Z,6.95
2022-11-25T02:10:54.112Z,6.92
2022-11-25T02:12:25.687Z,6.94
2022-11-25T02:13:57.317Z,6.92
2022-11-25T02:15:28.981Z,6.91
2022-11-25T02:17:01.459Z,6.89
2022-11-25T02:18:33.634Z,6.87
2022-11-25T02:20:09.686Z,6.83
2022-11-25T02:21:42.217Z,6.82
2022-11-25T02:23:34.353Z,6.80
2022-11-25T02:25:24.679Z,6.79
2022-11-25T02:26:56.315Z,6.80
2022-11-25T02:28:28.571Z,6.79
2022-11-25T02:30:00.082Z,6.79
2022-11-25T02:31:31.663Z,6.79
2022-11-25T02:33:03.268Z,6.80
2022-11-25T02:34:35.088Z,6.84
2022-11-25T02:36:07.403Z,6.84
2022-11-25T02:37:39.043Z,6.82
2022-11-25T02:39:10.572Z,6.84
2022-11-25T02:40:44.578Z,6.88
2022-11-25T02:42:16.211Z,6.91
2022-11-25T02:43:47.770Z,6.93
2022-11-25T02:45:20.214Z,6.93
2022-11-25T02:46:52.012Z,6.92
2022-11-25T02:48:39.744Z,6.91
2022-11-25T02:50:15.909Z,6.88
2022-11-25T02:51:47.568Z,6.86
2022-11-25T02:53:19.269Z,6.86
2022-11-25T02:54:50.798Z,6.89
2022-11-25T02:56:23.158Z,6.90
2022-11-25T02:57:54.659Z,6.90
2022-11-25T02:59:26.182Z,6.88
2022-11-25T03:00:58.653Z,6.89
2022-11-25T03:02:30.598Z,6.92
2022-11-25T03:04:02.357Z,6.95
2022-11-25T03:05:34.281Z,6.98
2022-11-25T03:07:06.066Z,7.01
2022-11-25T03:08:38.295Z,7.02
2022-11-25T03:10:09.964Z,7.01
2022-11-25T03:12:00.278Z,7.03
2022-11-25T03:13:32.039Z,7.05
2022-11-25T03:15:03.774Z,7.07
2022-11-25T03:16:35.943Z,7.09
2022-11-25T03:18:07.580Z,7.09
2022-11-25T03:19:39.098Z,7.14
2022-11-25T03:21:10.696Z,7.15
2022-11-25T03:22:42.600Z,7.15
2022-11-25T03:24:14.293Z,7.15
2022-11-25T03:25:45.855Z,7.15
2022-11-25T03:27:17.423Z,7.15
2022-11-25T03:28:48.910Z,7.17
2022-11-25T03:30:21.208Z,7.16
2022-11-25T03:31:52.897Z,7.16
2022-11-25T03:33:24.503Z,7.16
2022-11-25T03:34:56.105Z,7.21
2022-11-25T03:36:27.680Z,7.20
2022-11-25T03:37:59.183Z,7.20
2022-11-25T03:39:30.870Z,7.17
2022-11-25T03:41:02.435Z,7.16
2022-11-25T03:42:34.004Z,7.15
2022-11-25T03:44:05.758Z,7.16
2022-11-25T03:45:37.466Z,7.14
2022-11-25T03:47:09.498Z,7.11
2022-11-25T03:48:41.029Z,7.11
2022-11-25T03:50:13.121Z,7.11
2022-11-25T03:51:45.212Z,7.09
2022-11-25T03:53:16.885Z,7.08
2022-11-25T03:54:48.795Z,7.08
2022-11-25T03:56:20.512Z,7.06
2022-11-25T03:57:52.090Z,7.07
2022-11-25T03:59:23.861Z,7.09
2022-11-25T04:00:55.436Z,7.05
2022-11-25T04:02:27.109Z,7.06
2022-11-25T04:03:58.739Z,7.09
2022-11-25T04:05:30.281Z,7.12
2022-11-25T04:07:01.863Z,7.15
2022-11-25T04:08:33.542Z,7.13
2022-11-25T04:10:05.466Z,7.14
2022-11-25T04:11:55.777Z,7.15
2022-11-25T04:13:27.783Z,7.12
2022-11-25T04:14:59.532Z,7.10
2022-11-25T04:16:31.153Z,7.10
2022-11-25T04:18:02.845Z,7.09
2022-11-25T04:19:34.343Z,7.07
2022-11-25T04:21:06.027Z,7.07
2022-11-25T04:22:37.615Z,7.09
2022-11-25T04:24:09.728Z,7.07
2022-11-25T04:25:41.315Z,7.04
2022-11-25T04:27:12.977Z,7.02
2022-11-25T04:28:44.957Z,6.99
2022-11-25T04:30:16.518Z,6.98
2022-11-25T04:31:48.206Z,6.97
2022-11-25T04:33:19.791Z,6.95
2022-11-25T04:34:51.401Z,6.95
2022-11-25T04:36:23.071Z,6.95
2022-11-25T04:37:54.762Z,6.95
2022-11-25T04:39:26.324Z,6.93
2022-11-25T04:40:57.849Z,6.90
2022-11-25T04:42:32.313Z,6.90
2022-11-25T04:44:04.000Z,6.87
2022-11-25T04:45:58.650Z,6.88
2022-11-25T04:47:27.507Z,6.86
2022-11-25T04:48:59.005Z,6.82
2022-11-25T04:50:30.724Z,6.81
2022-11-25T04:52:02.389Z,6.81
2022-11-25T04:53:34.058Z,6.79
2022-11-25T04:55:06.059Z,6.77
2022-11-25T04:56:37.729Z,6.75
2022-11-25T04:58:10.338Z,6.73
2022-11-25T04:59:42.365Z,6.72
2022-11-25T05:01:13.938Z,6.69
2022-11-25T05:02:45.503Z,6.69
2022-11-25T05:04:17.261Z,6.64
2022-11-25T05:05:49.107Z,6.59
2022-11-25T05:07:21.180Z,6.57
2022-11-25T05:08:52.880Z,6.57
2022-11-25T05:10:24.403Z,6.53
2022-11-25T05:11:56.347Z,6.50
2022-11-25T05:13:28.045Z,6.48
2022-11-25T05:14:59.769Z,6.47
2022-11-25T05:16:31.589Z,6.45
2022-11-25T05:18:03.244Z,6.49
2022-11-25T05:19:36.461Z,6.50
2022-11-25T05:21:08.430Z,6.51
2022-11-25T05:22:40.057Z,6.51
2022-11-25T05:24:11.585Z,6.51
2022-11-25T05:25:43.166Z,6.49
2022-11-25T05:27:14.900Z,6.49
2022-11-25T05:28:46.665Z,6.47
2022-11-25T05:30:18.418Z,6.47
2022-11-25T05:31:49.954Z,6.44
2022-11-25T05:33:21.861Z,6.46
2022-11-25T05:34:53.800Z,6.46
2022-11-25T05:36:25.481Z,6.48
2022-11-25T05:37:57.585Z,6.47
2022-11-25T05:39:29.418Z,6.49
2022-11-25T05:41:01.972Z,6.51
2022-11-25T05:42:33.613Z,6.53
2022-11-25T05:44:05.688Z,6.54
2022-11-25T05:45:38.912Z,6.56
2022-11-25T05:47:10.704Z,6.57
2022-11-25T05:48:42.322Z,6.62
2022-11-25T05:50:13.964Z,6.64
2022-11-25T05:51:45.726Z,6.64
2022-11-25T05:53:20.059Z,6.64
2022-11-25T05:54:56.852Z,6.64
2022-11-25T05:56:28.960Z,6.66
2022-11-25T05:58:00.555Z,6.68
2022-11-25T05:59:32.237Z,6.69
2022-11-25T06:01:10.081Z,6.71
2022-11-25T06:02:41.919Z,6.72
2022-11-25T06:04:14.288Z,6.73
2022-11-25T06:05:46.105Z,6.75
2022-11-25T06:07:17.954Z,6.77
2022-11-25T06:08:49.998Z,6.79
2022-11-25T06:10:21.871Z,6.73
2022-11-25T06:11:54.157Z,6.69
2022-11-25T06:13:26.032Z,6.71
2022-11-25T06:14:57.863Z,6.70
2022-11-25T06:16:30.171Z,6.74
2022-11-25T06:18:02.379Z,6.76
2022-11-25T06:19:34.161Z,6.76
2022-11-25T06:21:06.160Z,6.76
2022-11-25T06:22:38.127Z,6.73
2022-11-25T06:24:09.732Z,6.72
2022-11-25T06:25:41.413Z,6.71
2022-11-25T06:27:13.293Z,6.71
2022-11-25T06:28:45.359Z,6.72
2022-11-25T06:30:17.167Z,6.73
2022-11-25T06:31:51.712Z,6.75
2022-11-25T06:33:23.636Z,6.76
2022-11-25T06:34:55.502Z,6.74
2022-11-25T06:36:27.594Z,6.72
2022-11-25T06:37:59.471Z,6.74
2022-11-25T06:39:31.128Z,6.79
2022-11-25T06:41:03.351Z,6.82
2022-11-25T06:42:35.303Z,6.83
2022-11-25T06:44:06.867Z,6.87
2022-11-25T06:45:38.453Z,6.89
2022-11-25T06:47:10.277Z,6.90
2022-11-25T06:48:42.114Z,6.95
2022-11-25T06:50:13.774Z,7.02
2022-11-25T06:51:45.532Z,7.04
2022-11-25T06:53:21.177Z,7.07
2022-11-25T06:54:55.562Z,7.07
2022-11-25T06:56:28.753Z,7.06
2022-11-25T06:58:27.843Z,7.02
2022-11-25T06:59:52.563Z,6.96
2022-11-25T07:01:25.242Z,6.91
2022-11-25T07:02:56.953Z,6.88
2022-11-25T07:04:28.746Z,6.87
2022-11-25T07:06:00.585Z,6.87
2022-11-25T07:07:32.424Z,6.88
2022-11-25T07:09:04.170Z,6.88
2022-11-25T07:10:35.862Z,6.86
2022-11-25T07:12:07.450Z,6.95
2022-11-25T07:13:39.170Z,6.99
2022-11-25T07:15:10.902Z,7.02
2022-11-25T07:16:43.946Z,7.05
2022-11-25T07:18:15.816Z,7.12
2022-11-25T07:19:47.745Z,7.15
2022-11-25T07:21:21.058Z,7.08
2022-11-25T07:22:52.771Z,7.00
2022-11-25T07:24:24.348Z,6.94
2022-11-25T07:25:56.268Z,6.89
2022-11-25T07:27:29.089Z,6.95
2022-11-25T07:29:01.643Z,6.98
2022-11-25T07:32:24.951Z,7.15
2022-11-25T07:33:57.469Z,7.30
2022-11-25T07:35:29.131Z,7.50
2022-11-25T07:37:01.069Z,7.72
2022-11-25T07:38:33.268Z,7.89
2022-11-25T07:40:05.457Z,8.13
2022-11-25T07:41:37.194Z,8.37
2022-11-25T07:43:08.769Z,8.65
2022-11-25T07:44:40.415Z,8.93
2022-11-25T07:46:13.388Z,9.20
2022-11-25T07:47:44.947Z,9.41
2022-11-25T07:49:17.581Z,9.65
2022-11-25T07:50:50.381Z,9.86
2022-11-25T07:52:22.317Z,10.06
2022-11-25T07:53:54.508Z,10.21
2022-11-25T07:55:26.102Z,10.30
2022-11-25T07:56:57.795Z,10.43
2022-11-25T07:58:29.542Z,10.57
2022-11-25T08:00:01.760Z,10.74
2022-11-25T08:01:33.368Z,10.97
2022-11-25T08:03:05.087Z,11.05
2022-11-25T08:04:37.028Z,11.17
2022-11-25T08:06:16.669Z,11.32
2022-11-25T08:07:48.292Z,11.41
2022-11-25T08:09:21.082Z,11.57
2022-11-25T08:10:52.601Z,11.74
2022-11-25T08:12:24.847Z,11.81
2022-11-25T08:13:56.933Z,11.95
2022-11-25T08:15:28.479Z,12.05
2022-11-25T08:17:00.351Z,12.19
2022-11-25T08:18:32.044Z,12.28
2022-11-25T08:20:03.881Z,12.37
2022-11-25T08:21:35.973Z,12.45
2022-11-25T08:23:07.612Z,12.49
2022-11-25T08:24:39.389Z,12.50
2022-11-25T08:26:12.219Z,12.58
2022-11-25T08:27:44.091Z,12.69
2022-11-25T08:29:16.126Z,12.71
2022-11-25T08:30:47.657Z,12.66
2022-11-25T08:32:19.701Z,12.69
2022-11-25T08:33:51.966Z,12.58
2022-11-25T08:35:24.219Z,12.49
2022-11-25T08:36:55.930Z,12.41
2022-11-25T08:38:27.833Z,12.26
2022-11-25T08:40:00.637Z,12.19
2022-11-25T08:41:33.954Z,12.10
2022-11-25T08:43:05.572Z,12.00
2022-11-25T08:44:37.512Z,11.98
2022-11-25T08:46:10.464Z,12.00
2022-11-25T08:47:42.132Z,12.11
2022-11-25T08:49:14.244Z,12.23
2022-11-25T08:50:47.187Z,12.21
2022-11-25T08:52:18.961Z,12.23
2022-11-25T08:53:53.531Z,12.22
2022-11-25T08:55:27.403Z,12.10
2022-11-25T08:57:00.959Z,12.05
2022-11-25T08:58:32.796Z,12.06
2022-11-25T09:00:07.537Z,12.02
2022-11-25T09:01:39.268Z,12.02
2022-11-25T09:03:11.029Z,11.98
2022-11-25T09:04:42.900Z,12.02
2022-11-25T09:06:15.058Z,12.07
2022-11-25T09:07:46.665Z,12.05
2022-11-25T09:09:18.468Z,12.06
2022-11-25T09:10:50.673Z,12.14
2022-11-25T09:12:22.501Z,12.17
2022-11-25T09:13:54.170Z,12.16
2022-11-25T09:15:25.863Z,12.17
2022-11-25T09:16:57.602Z,12.15
2022-11-25T09:18:30.663Z,12.08
2022-11-25T09:20:02.339Z,12.04
2022-11-25T09:21:35.174Z,12.01
2022-11-25T09:23:07.904Z,11.93
2022-11-25T09:24:39.677Z,11.81
2022-11-25T09:26:17.892Z,11.70
2022-11-25T09:27:49.819Z,11.63
2022-11-25T09:29:21.483Z,11.60
2022-11-25T09:30:53.479Z,11.65
2022-11-25T09:32:25.271Z,11.73
2022-11-25T09:33:57.505Z,11.84
2022-11-25T09:35:29.701Z,11.92
2022-11-25T09:37:01.388Z,12.00
2022-11-25T09:38:35.658Z,12.07
2022-11-25T09:40:11.944Z,12.11
2022-11-25T09:42:09.663Z,12.12
2022-11-25T09:44:22.191Z,12.07
2022-11-25T09:46:14.106Z,12.03
2022-11-25T09:47:48.966Z,11.93
2022-11-25T09:49:41.193Z,11.91
2022-11-25T09:51:18.927Z,11.89
2022-11-25T09:52:54.242Z,11.82
2022-11-25T09:54:46.248Z,11.79
2022-11-25T09:56:38.720Z,11.65
2022-11-25T09:58:19.595Z,11.58
2022-11-25T09:59:55.237Z,11.49
2022-11-25T10:01:27.430Z,11.51
2022-11-25T10:03:00.315Z,11.60
2022-11-25T10:04:40.200Z,11.58
2022-11-25T10:06:12.213Z,11.56
2022-11-25T10:07:44.955Z,11.55
2022-11-25T10:09:17.877Z,11.47
2022-11-25T10:10:57.272Z,11.39
2022-11-25T10:12:29.762Z,11.33
2022-11-25T10:14:03.088Z,11.27
2022-11-25T10:15:36.037Z,11.32
2022-11-25T10:17:11.752Z,11.36
2022-11-25T10:18:45.717Z,11.34
2022-11-25T10:20:30.649Z,11.43
2022-11-25T10:22:05.665Z,11.55
2022-11-25T10:23:38.399Z,11.67
2022-11-25T10:25:13.811Z,11.75
2022-11-25T10:26:46.575Z,11.76
2022-11-25T10:28:19.997Z,11.73
2022-11-25T10:29:56.638Z,11.76
2022-11-25T10:31:33.450Z,11.83
2022-11-25T10:33:05.908Z,11.83
2022-11-25T10:34:48.342Z,11.91
2022-11-25T10:36:35.859Z,12.09
2022-11-25T10:38:08.459Z,12.25
2022-11-25T10:39:40.539Z,12.32
2022-11-25T10:41:13.392Z,12.38
2022-11-25T10:42:45.158Z,12.39
2022-11-25T10:44:33.142Z,12.41
2022-11-25T10:46:17.362Z,12.58
2022-11-25T10:47:53.159Z,12.76
2022-11-25T10:49:25.192Z,12.88
2022-11-25T10:51:15.705Z,12.99
2022-11-25T10:52:55.514Z,12.94
2022-11-25T10:54:28.507Z,12.95
2022-11-25T10:56:03.789Z,12.98
2022-11-25T10:57:35.400Z,13.02
2022-11-25T10:59:13.320Z,13.18
2022-11-25T11:00:45.325Z,13.18
2022-11-25T11:02:16.999Z,13.05
2022-11-25T11:03:52.858Z,12.94
2022-11-25T11:05:29.905Z,12.79
2022-11-25T11:07:07.181Z,12.64
2022-11-25T11:08:39.550Z,12.59
2022-11-25T11:10:18.480Z,12.43
2022-11-25T11:11:50.368Z,12.24
2022-11-25T11:13:27.293Z,12.11
2022-11-25T11:15:31.312Z,12.03
2022-11-25T11:17:03.116Z,11.89
2022-11-25T11:18:38.013Z,11.82
2022-11-25T11:20:09.908Z,11.79
2022-11-25T11:21:41.893Z,11.78
2022-11-25T11:23:14.657Z,11.77
2022-11-25T11:24:46.764Z,11.74
2022-11-25T11:26:22.832Z,11.74
2022-11-25T11:27:54.801Z,11.68
2022-11-25T11:29:26.435Z,11.60
2022-11-25T11:31:01.827Z,11.58
2022-11-25T11:32:33.677Z,11.54
2022-11-25T11:34:08.380Z,11.42
2022-11-25T11:35:59.176Z,11.30
2022-11-25T11:37:39.960Z,11.24
2022-11-25T11:39:25.178Z,11.20
2022-11-25T11:41:00.717Z,11.09
2022-11-25T11:42:39.741Z,11.03
2022-11-25T11:44:15.429Z,11.01
2022-11-25T11:45:48.556Z,10.88
2022-11-25T11:47:29.284Z,10.80
2022-11-25T11:49:03.539Z,10.77
2022-11-25T11:50:35.252Z,10.81
2022-11-25T11:52:11.799Z,10.85
2022-11-25T11:53:44.120Z,10.82
2022-11-25T11:55:36.063Z,10.75
2022-11-25T11:57:10.971Z,10.65
2022-11-25T11:58:42.891Z,10.59
2022-11-25T12:00:15.552Z,10.51
2022-11-25T12:01:55.280Z,10.46
2022-11-25T12:03:27.021Z,10.41
2022-11-25T12:05:01.544Z,10.42
2022-11-25T12:06:33.837Z,10.43
2022-11-25T12:08:11.323Z,10.40
2022-11-25T12:09:44.867Z,10.38
2022-11-25T12:11:39.898Z,10.38
2022-11-25T12:13:11.545Z,10.43
2022-11-25T12:14:44.084Z,10.42
2022-11-25T12:16:17.921Z,10.41
2022-11-25T12:17:52.692Z,10.38
2022-11-25T12:19:33.888Z,10.33
2022-11-25T12:21:06.326Z,10.30
2022-11-25T12:22:49.774Z,10.33
2022-11-25T12:24:33.632Z,10.28
2022-11-25T12:26:07.515Z,10.25
2022-11-25T12:27:40.761Z,10.19
2022-11-25T12:29:13.644Z,10.19
2022-11-25T12:30:51.178Z,10.23
2022-11-25T12:32:28.725Z,10.27
2022-11-25T12:34:02.844Z,10.29
2022-11-25T12:35:40.551Z,10.24
2022-11-25T12:37:15.372Z,10.22
2022-11-25T12:38:57.547Z,10.17
2022-11-25T12:40:29.370Z,10.09
2022-11-25T12:42:01.833Z,10.05
2022-11-25T12:43:34.106Z,10.01
2022-11-25T12:45:06.196Z,9.99
2022-11-25T12:46:45.349Z,9.99
2022-11-25T12:48:21.269Z,10.00
2022-11-25T12:49:53.281Z,9.95
2022-11-25T12:51:29.046Z,9.92
2022-11-25T12:53:02.820Z,9.91
2022-11-25T12:54:37.505Z,9.92
2022-11-25T12:56:12.979Z,9.95
2022-11-25T12:57:49.305Z,9.94
2022-11-25T12:59:40.290Z,9.95
2022-11-25T13:01:11.964Z,9.97
2022-11-25T13:02:53.080Z,9.98
2022-11-25T13:04:40.103Z,10.00
2022-11-25T13:06:23.739Z,10.00
2022-11-25T13:08:12.420Z,9.97
2022-11-25T13:09:44.219Z,9.92
2022-11-25T13:11:29.355Z,9.91
2022-11-25T13:13:07.350Z,9.94
2022-11-25T13:14:48.739Z,9.98
2022-11-25T13:16:21.889Z,9.97
2022-11-25T13:17:58.147Z,9.96
2022-11-25T13:19:29.850Z,9.96
2022-11-25T13:21:08.794Z,9.96
2022-11-25T13:22:40.421Z,9.90
2022-11-25T13:24:26.496Z,9.87
2022-11-25T13:26:17.355Z,9.87
2022-11-25T13:27:49.401Z,9.82
2022-11-25T13:29:27.005Z,9.81
2022-11-25T13:31:14.390Z,9.80
2022-11-25T13:32:46.497Z,9.78
2022-11-25T13:34:20.754Z,9.77
2022-11-25T13:35:52.485Z,9.74
2022-11-25T13:37:37.671Z,9.74
2022-11-25T13:39:14.716Z,9.74
2022-11-25T13:40:49.489Z,9.75
2022-11-25T13:42:23.472Z,9.74
2022-11-25T13:44:02.415Z,9.74
2022-11-25T13:45:35.525Z,9.74
2022-11-25T13:47:26.063Z,9.75
2022-11-25T13:48:57.700Z,9.68
2022-11-25T13:50:48.269Z,9.62
2022-11-25T13:52:24.911Z,9.65
2022-11-25T13:53:58.076Z,9.64
2022-11-25T13:55:34.221Z,9.63
2022-11-25T13:57:11.756Z,9.61
2022-11-25T13:59:03.237Z,9.55
2022-11-25T14:00:34.973Z,9.54
2022-11-25T14:02:25.223Z,9.58
2022-11-25T14:03:57.622Z,9.54
2022-11-25T14:05:29.176Z,9.54
2022-11-25T14:07:21.112Z,9.52
2022-11-25T14:08:58.684Z,9.55
2022-11-25T14:10:50.395Z,9.56
2022-11-25T14:12:24.863Z,9.55
2022-11-25T14:14:15.311Z,9.53
2022-11-25T14:16:05.318Z,9.50
2022-11-25T14:17:42.302Z,9.43
2022-11-25T14:19:50.084Z,9.43
2022-11-25T14:21:33.589Z,9.44
2022-11-25T14:23:17.058Z,9.48
2022-11-25T14:24:52.799Z,9.51
2022-11-25T14:26:49.345Z,9.54
2022-11-25T14:28:22.946Z,9.58
2022-11-25T14:29:55.790Z,9.54
2022-11-25T14:31:31.736Z,9.49
2022-11-25T14:33:03.871Z,9.43
2022-11-25T14:34:56.650Z,9.42
2022-11-25T14:36:30.628Z,9.40
2022-11-25T14:38:17.008Z,9.41
2022-11-25T14:40:06.868Z,9.40
2022-11-25T14:41:39.718Z,9.38
2022-11-25T14:43:15.730Z,9.39
2022-11-25T14:44:51.289Z,9.40
2022-11-25T14:46:23.853Z,9.42
2022-11-25T14:47:56.168Z,9.42
2022-11-25T14:49:55.330Z,9.41
2022-11-25T14:51:34.557Z,9.35
2022-11-25T14:53:09.356Z,9.32
2022-11-25T14:54:42.214Z,9.28
2022-11-25T14:56:13.950Z,9.26
2022-11-25T14:57:46.102Z,9.28
2022-11-25T14:59:18.614Z,9.30
2022-11-25T15:01:00.219Z,9.31
2022-11-25T15:02:33.652Z,9.31
2022-11-25T15:04:05.606Z,9.31
2022-11-25T15:05:37.844Z,9.29
2022-11-25T15:07:15.275Z,9.29
2022-11-25T15:08:53.682Z,9.30
2022-11-25T15:10:36.533Z,9.28
2022-11-25T15:12:18.526Z,9.27
2022-11-25T15:13:56.136Z,9.28
2022-11-25T15:15:28.175Z,9.25
2022-11-25T15:17:00.255Z,9.22
2022-11-25T15:18:33.745Z,9.19
2022-11-25T15:20:11.405Z,9.15
2022-11-25T15:22:14.592Z,9.13
2022-11-25T15:23:36.837Z,9.12
2022-11-25T15:25:10.153Z,9.13
2022-11-25T15:26:41.991Z,9.10
2022-11-25T15:28:15.516Z,9.05
2022-11-25T15:29:47.477Z,9.07
2022-11-25T15:31:20.185Z,9.08
2022-11-25T15:32:52.166Z,9.10
2022-11-25T15:34:23.971Z,9.08
2022-11-25T15:35:55.760Z,9.07
2022-11-25T15:37:28.306Z,9.08
2022-11-25T15:39:18.664Z,9.11
2022-11-25T15:40:56.595Z,9.09
2022-11-25T15:42:28.607Z,9.06
2022-11-25T15:44:01.439Z,9.04
2022-11-25T15:45:38.084Z,9.04
2022-11-25T15:47:18.499Z,9.05
2022-11-25T15:48:50.484Z,9.03
2022-11-25T15:50:23.155Z,9.03
2022-11-25T15:51:57.518Z,9.02
2022-11-25T15:53:33.356Z,9.01
2022-11-25T15:55:08.735Z,9.00
2022-11-25T15:56:42.984Z,9.02
2022-11-25T15:58:18.899Z,8.98
2022-11-25T15:59:51.074Z,8.99
2022-11-25T16:01:23.301Z,8.99
2022-11-25T16:02:55.648Z,8.97
2022-11-25T16:04:27.629Z,8.89
2022-11-25T16:05:59.902Z,8.80
2022-11-25T16:07:31.750Z,8.72
2022-11-25T16:09:04.265Z,8.66
2022-11-25T16:10:42.347Z,8.65
2022-11-25T16:12:15.893Z,8.59
2022-11-25T16:13:47.870Z,8.53
2022-11-25T16:15:19.605Z,8.45
2022-11-25T16:16:51.239Z,8.41
2022-11-25T16:18:39.701Z,8.40
2022-11-25T16:20:19.540Z,8.41
2022-11-25T16:21:55.040Z,8.39
2022-11-25T16:23:26.845Z,8.39
2022-11-25T16:25:02.847Z,8.37
2022-11-25T16:26:34.849Z,8.32
2022-11-25T16:28:06.586Z,8.29
2022-11-25T16:29:39.694Z,8.22
2022-11-25T16:31:16.064Z,8.17
2022-11-25T16:32:48.996Z,8.13
2022-11-25T16:34:21.216Z,8.13
2022-11-25T16:35:53.754Z,8.15
2022-11-25T16:37:25.525Z,8.11
2022-11-25T16:38:58.095Z,8.07
2022-11-25T16:40:30.345Z,8.06
2022-11-25T16:42:04.629Z,8.05
2022-11-25T16:43:37.394Z,8.03
2022-11-25T16:45:19.943Z,8.03
2022-11-25T16:46:51.825Z,7.99
2022-11-25T16:48:24.097Z,7.98
2022-11-25T16:49:55.773Z,8.00
2022-11-25T16:51:27.753Z,8.02
2022-11-25T16:52:59.536Z,8.01
2022-11-25T16:54:32.061Z,7.97
2022-11-25T16:56:03.850Z,7.93
2022-11-25T16:57:35.452Z,7.89
2022-11-25T16:59:07.518Z,7.90
2022-11-25T17:00:39.197Z,7.83
2022-11-25T17:02:18.405Z,7.78
2022-11-25T17:03:50.134Z,7.78
2022-11-25T17:05:24.100Z,7.78
2022-11-25T17:07:31.227Z,7.77
2022-11-25T17:08:50.253Z,7.77
2022-11-25T17:10:22.523Z,7.77
2022-11-25T17:11:55.303Z,7.78
2022-11-25T17:13:27.268Z,7.78
2022-11-25T17:15:00.265Z,7.78
2022-11-25T17:16:33.247Z,7.75
2022-11-25T17:18:05.667Z,7.73
2022-11-25T17:19:37.763Z,7.70
2022-11-25T17:21:12.044Z,7.68
2022-11-25T17:22:44.238Z,7.64
2022-11-25T17:24:17.656Z,7.66
2022-11-25T17:25:49.641Z,7.66
2022-11-25T17:27:25.456Z,7.67
2022-11-25T17:28:57.961Z,7.65
2022-11-25T17:30:29.831Z,7.61
2022-11-25T17:32:02.101Z,7.62
2022-11-25T17:33:34.906Z,7.68
2022-11-25T17:35:12.233Z,7.70
2022-11-25T17:36:44.639Z,7.70
2022-11-25T17:38:20.293Z,7.72
2022-11-25T17:39:55.417Z,7.73
2022-11-25T17:41:27.619Z,7.73
2022-11-25T17:42:59.183Z,7.70
2022-11-25T17:44:31.149Z,7.70
2022-11-25T17:46:03.299Z,7.72
2022-11-25T17:47:35.098Z,7.72
2022-11-25T17:49:08.968Z,7.75
2022-11-25T17:50:41.430Z,7.74
2022-11-25T17:52:13.198Z,7.75
2022-11-25T17:53:45.813Z,7.77
2022-11-25T17:55:19.836Z,7.79
2022-11-25T17:56:52.638Z,7.76
2022-11-25T17:58:24.786Z,7.74
2022-11-25T17:59:56.385Z,7.68
2022-11-25T18:01:28.122Z,7.67
2022-11-25T18:02:59.985Z,7.59
2022-11-25T18:04:32.529Z,7.57
2022-11-25T18:06:05.074Z,7.52
2022-11-25T18:07:37.545Z,7.46
2022-11-25T18:09:09.242Z,7.46
2022-11-25T18:10:40.911Z,7.38
2022-11-25T18:12:31.027Z,7.33
2022-11-25T18:14:02.662Z,7.28
2022-11-25T18:15:34.940Z,7.26
2022-11-25T18:17:07.062Z,7.26
2022-11-25T18:18:39.000Z,7.25
2022-11-25T18:20:21.247Z,7.28
2022-11-25T18:21:54.080Z,7.31
2022-11-25T18:23:25.776Z,7.34
2022-11-25T18:24:57.875Z,7.33
2022-11-25T18:26:29.501Z,7.30
2022-11-25T18:28:01.519Z,7.28
2022-11-25T18:29:33.592Z,7.28
2022-11-25T18:31:05.708Z,7.31
2022-11-25T18:32:37.633Z,7.32
2022-11-25T18:34:13.126Z,7.32
2022-11-25T18:35:45.033Z,7.34
2022-11-25T18:37:16.823Z,7.32
2022-11-25T18:38:49.908Z,7.35
2022-11-25T18:40:21.556Z,7.41
2022-11-25T18:41:58.752Z,7.46
2022-11-25T18:43:30.987Z,7.46
2022-11-25T18:45:03.380Z,7.43
2022-11-25T18:46:36.497Z,7.41
2022-11-25T18:48:17.360Z,7.37
2022-11-25T18:49:55.150Z,7.30
2022-11-25T18:51:28.549Z,7.25
2022-11-25T18:53:01.079Z,7.21
2022-11-25T18:54:32.868Z,7.21
2022-11-25T18:56:04.656Z,7.19
2022-11-25T18:57:36.557Z,7.14
2022-11-25T18:59:09.913Z,7.13
2022-11-25T19:00:41.715Z,7.13
2022-11-25T19:02:17.018Z,7.11
2022-11-25T19:03:49.860Z,7.08
2022-11-25T19:05:22.678Z,7.03
2022-11-25T19:06:54.592Z,7.00
2022-11-25T19:08:26.786Z,7.00
2022-11-25T19:09:58.410Z,6.96
2022-11-25T19:11:32.117Z,6.92
2022-11-25T19:13:05.601Z,6.88
2022-11-25T19:14:38.011Z,6.82
2022-11-25T19:16:12.561Z,6.78
2022-11-25T19:17:44.854Z,6.74
2022-11-25T19:19:16.820Z,6.72
2022-11-25T19:20:49.003Z,6.69
2022-11-25T19:22:22.898Z,6.70
2022-11-25T19:23:55.260Z,6.66
2022-11-25T19:25:27.185Z,6.63
2022-11-25T19:26:58.985Z,6.60
2022-11-25T19:28:30.820Z,6.59
2022-11-25T19:30:03.782Z,6.63
2022-11-25T19:31:35.980Z,6.64
2022-11-25T19:33:09.279Z,6.63
2022-11-25T19:34:44.073Z,6.65
2022-11-25T19:36:21.865Z,6.61
2022-11-25T19:37:54.229Z,6.54
2022-11-25T19:39:25.997Z,6.46
2022-11-25T19:40:57.862Z,6.38
2022-11-25T19:42:32.003Z,6.29
2022-11-25T19:44:03.831Z,6.24
2022-11-25T19:45:35.813Z,6.21
2022-11-25T19:47:15.103Z,6.21
2022-11-25T19:48:47.529Z,6.19
2022-11-25T19:50:23.444Z,6.19
2022-11-25T19:51:55.450Z,6.16
2022-11-25T19:53:33.091Z,6.13
2022-11-25T19:55:15.470Z,6.10
2022-11-25T19:56:47.605Z,6.07
2022-11-25T19:58:19.285Z,6.06
2022-11-25T19:59:51.154Z,6.04
2022-11-25T20:01:24.235Z,6.03
2022-11-25T20:02:56.521Z,6.03
2022-11-25T20:04:28.216Z,6.03
2022-11-25T20:06:00.113Z,6.05
2022-11-25T20:07:32.622Z,6.05
2022-11-25T20:09:07.887Z,6.07
2022-11-25T20:10:39.922Z,6.07
2022-11-25T20:12:17.814Z,6.08
2022-11-25T20:13:50.679Z,6.07
2022-11-25T20:15:22.738Z,6.09
2022-11-25T20:16:54.301Z,6.12
2022-11-25T20:18:26.688Z,6.11
2022-11-25T20:19:59.422Z,6.11
2022-11-25T20:21:34.979Z,6.12
2022-11-25T20:23:08.786Z,6.12
2022-11-25T20:24:40.352Z,6.14
2022-11-25T20:26:16.863Z,6.11
2022-11-25T20:27:48.832Z,6.09
2022-11-25T20:29:24.537Z,6.09
2022-11-25T20:31:02.017Z,6.09
2022-11-25T20:32:36.658Z,6.09
2022-11-25T20:34:08.778Z,6.08
2022-11-25T20:35:41.536Z,6.06
2022-11-25T20:37:19.032Z,6.05
2022-11-25T20:38:52.953Z,6.04
2022-11-25T20:40:25.926Z,6.01
2022-11-25T20:41:58.010Z,5.97
2022-11-25T20:43:30.937Z,5.99
2022-11-25T20:45:03.020Z,5.97
2022-11-25T20:46:34.953Z,5.94
2022-11-25T20:48:10.560Z,5.92
2022-11-25T20:49:45.844Z,5.88